sensor_id;sensor_type;location;lat;lon;timestamp;P1;durP1;ratioP1;P2;durP2;ratioP2
33150;SDS011;19508;42.578;23.416;2023-02-28T00:00:39;0.85;;;0.85;;
33150;SDS011;19508;42.578;23.416;2023-02-28T00:03:04;0.40;;;0.40;;
33150;SDS011;19508;42.578;23.416;2023-02-28T00:05:30;0.30;;;0.30;;
33150;SDS011;19508;42.578;23.416;2023-02-28T00:07:56;0.63;;;0.63;;
33150;SDS011;19508;42.578;23.416;2023-02-28T00:10:23;0.65;;;0.65;;
33150;SDS011;19508;42.578;23.416;2023-02-28T00:12:53;0.40;;;0.40;;
33150;SDS011;19508;42.578;23.416;2023-02-28T00:15:22;0.88;;;0.88;;
33150;SDS011;19508;42.578;23.416;2023-02-28T00:17:48;0.40;;;0.40;;
33150;SDS011;19508;42.578;23.416;2023-02-28T00:20:14;4.53;;;4.10;;
33150;SDS011;19508;42.578;23.416;2023-02-28T00:22:41;0.85;;;0.80;;
33150;SDS011;19508;42.578;23.416;2023-02-28T00:25:09;0.30;;;0.30;;
33150;SDS011;19508;42.578;23.416;2023-02-28T00:27:37;0.60;;;0.60;;
33150;SDS011;19508;42.578;23.416;2023-02-28T00:30:03;0.40;;;0.40;;
33150;SDS011;19508;42.578;23.416;2023-02-28T00:32:30;1.85;;;1.75;;
33150;SDS011;19508;42.578;23.416;2023-02-28T00:34:56;0.50;;;0.50;;
33150;SDS011;19508;42.578;23.416;2023-02-28T00:37:21;3.55;;;3.22;;
33150;SDS011;19508;42.578;23.416;2023-02-28T00:39:47;0.85;;;0.82;;
33150;SDS011;19508;42.578;23.416;2023-02-28T00:42:13;1.08;;;1.05;;
33150;SDS011;19508;42.578;23.416;2023-02-28T00:44:38;0.55;;;0.52;;
33150;SDS011;19508;42.578;23.416;2023-02-28T00:47:03;0.30;;;0.30;;
33150;SDS011;19508;42.578;23.416;2023-02-28T00:49:29;0.88;;;0.88;;
33150;SDS011;19508;42.578;23.416;2023-02-28T00:51:55;1.75;;;1.65;;
33150;SDS011;19508;42.578;23.416;2023-02-28T00:54:21;0.30;;;0.30;;
33150;SDS011;19508;42.578;23.416;2023-02-28T00:56:47;0.40;;;0.40;;
33150;SDS011;19508;42.578;23.416;2023-02-28T00:59:14;0.40;;;0.40;;
33150;SDS011;19508;42.578;23.416;2023-02-28T01:01:41;0.85;;;0.85;;
33150;SDS011;19508;42.578;23.416;2023-02-28T01:04:07;0.40;;;0.40;;
33150;SDS011;19508;42.578;23.416;2023-02-28T01:06:33;0.32;;;0.32;;
33150;SDS011;19508;42.578;23.416;2023-02-28T01:08:58;0.68;;;0.68;;
33150;SDS011;19508;42.578;23.416;2023-02-28T01:11:24;0.30;;;0.30;;
33150;SDS011;19508;42.578;23.416;2023-02-28T01:13:50;0.55;;;0.55;;
33150;SDS011;19508;42.578;23.416;2023-02-28T01:16:16;0.40;;;0.40;;
33150;SDS011;19508;42.578;23.416;2023-02-28T01:18:42;0.40;;;0.40;;
33150;SDS011;19508;42.578;23.416;2023-02-28T01:21:08;1.83;;;1.73;;
33150;SDS011;19508;42.578;23.416;2023-02-28T01:23:37;0.88;;;0.88;;
33150;SDS011;19508;42.578;23.416;2023-02-28T01:26:04;1.38;;;1.27;;
33150;SDS011;19508;42.578;23.416;2023-02-28T01:28:31;1.05;;;1.05;;
33150;SDS011;19508;42.578;23.416;2023-02-28T01:30:56;3.92;;;1.75;;
33150;SDS011;19508;42.578;23.416;2023-02-28T01:33:22;3.10;;;2.85;;
33150;SDS011;19508;42.578;23.416;2023-02-28T01:35:47;0.65;;;0.65;;
33150;SDS011;19508;42.578;23.416;2023-02-28T01:38:13;0.73;;;0.73;;
33150;SDS011;19508;42.578;23.416;2023-02-28T01:40:38;0.45;;;0.45;;
33150;SDS011;19508;42.578;23.416;2023-02-28T01:43:07;0.40;;;0.40;;
33150;SDS011;19508;42.578;23.416;2023-02-28T01:45:45;0.63;;;0.63;;
33150;SDS011;19508;42.578;23.416;2023-02-28T01:48:10;0.40;;;0.40;;
33150;SDS011;19508;42.578;23.416;2023-02-28T01:50:39;1.83;;;1.73;;
33150;SDS011;19508;42.578;23.416;2023-02-28T01:53:07;0.82;;;0.82;;
33150;SDS011;19508;42.578;23.416;2023-02-28T01:55:41;2.05;;;1.95;;
33150;SDS011;19508;42.578;23.416;2023-02-28T01:58:11;0.40;;;0.40;;
33150;SDS011;19508;42.578;23.416;2023-02-28T02:00:37;1.10;;;0.88;;
33150;SDS011;19508;42.578;23.416;2023-02-28T02:03:12;0.43;;;0.43;;
33150;SDS011;19508;42.578;23.416;2023-02-28T02:05:43;0.40;;;0.40;;
33150;SDS011;19508;42.578;23.416;2023-02-28T02:08:13;2.92;;;1.85;;
33150;SDS011;19508;42.578;23.416;2023-02-28T02:10:43;0.40;;;0.40;;
33150;SDS011;19508;42.578;23.416;2023-02-28T02:15:56;0.45;;;0.45;;
33150;SDS011;19508;42.578;23.416;2023-02-28T02:18:35;1.17;;;1.15;;
33150;SDS011;19508;42.578;23.416;2023-02-28T02:26:33;2.13;;;1.92;;
33150;SDS011;19508;42.578;23.416;2023-02-28T02:29:22;0.50;;;0.50;;
33150;SDS011;19508;42.578;23.416;2023-02-28T02:32:51;0.40;;;0.40;;
33150;SDS011;19508;42.578;23.416;2023-02-28T02:37:58;0.60;;;0.60;;
33150;SDS011;19508;42.578;23.416;2023-02-28T02:40:27;0.50;;;0.50;;
33150;SDS011;19508;42.578;23.416;2023-02-28T02:45:54;0.50;;;0.50;;
33150;SDS011;19508;42.578;23.416;2023-02-28T02:48:25;0.93;;;0.93;;
33150;SDS011;19508;42.578;23.416;2023-02-28T02:50:55;0.60;;;0.60;;
33150;SDS011;19508;42.578;23.416;2023-02-28T02:53:30;0.40;;;0.40;;
33150;SDS011;19508;42.578;23.416;2023-02-28T02:56:01;0.60;;;0.60;;
33150;SDS011;19508;42.578;23.416;2023-02-28T02:58:29;0.45;;;0.45;;
33150;SDS011;19508;42.578;23.416;2023-02-28T03:01:00;0.50;;;0.50;;
33150;SDS011;19508;42.578;23.416;2023-02-28T03:03:28;0.40;;;0.40;;
33150;SDS011;19508;42.578;23.416;2023-02-28T03:05:56;0.80;;;0.80;;
33150;SDS011;19508;42.578;23.416;2023-02-28T03:08:23;0.47;;;0.47;;
33150;SDS011;19508;42.578;23.416;2023-02-28T03:10:50;1.20;;;1.20;;
33150;SDS011;19508;42.578;23.416;2023-02-28T03:16:03;0.40;;;0.40;;
33150;SDS011;19508;42.578;23.416;2023-02-28T03:19:06;0.40;;;0.40;;
33150;SDS011;19508;42.578;23.416;2023-02-28T03:24:27;0.40;;;0.40;;
33150;SDS011;19508;42.578;23.416;2023-02-28T03:27:49;0.40;;;0.40;;
33150;SDS011;19508;42.578;23.416;2023-02-28T03:30:05;0.40;;;0.40;;
33150;SDS011;19508;42.578;23.416;2023-02-28T03:32:37;0.40;;;0.40;;
33150;SDS011;19508;42.578;23.416;2023-02-28T03:35:09;0.70;;;0.70;;
33150;SDS011;19508;42.578;23.416;2023-02-28T03:37:46;0.77;;;0.77;;
33150;SDS011;19508;42.578;23.416;2023-02-28T03:40:19;1.50;;;1.40;;
33150;SDS011;19508;42.578;23.416;2023-02-28T03:42:49;0.50;;;0.50;;
33150;SDS011;19508;42.578;23.416;2023-02-28T03:45:21;0.30;;;0.30;;
33150;SDS011;19508;42.578;23.416;2023-02-28T03:47:52;2.42;;;1.67;;
33150;SDS011;19508;42.578;23.416;2023-02-28T03:50:45;0.50;;;0.50;;
33150;SDS011;19508;42.578;23.416;2023-02-28T03:55:47;0.40;;;0.40;;
33150;SDS011;19508;42.578;23.416;2023-02-28T04:01:05;0.50;;;0.50;;
33150;SDS011;19508;42.578;23.416;2023-02-28T04:03:35;0.50;;;0.50;;
33150;SDS011;19508;42.578;23.416;2023-02-28T04:06:02;0.40;;;0.40;;
33150;SDS011;19508;42.578;23.416;2023-02-28T04:08:29;0.40;;;0.40;;
33150;SDS011;19508;42.578;23.416;2023-02-28T04:10:59;0.40;;;0.40;;
33150;SDS011;19508;42.578;23.416;2023-02-28T04:13:29;0.40;;;0.40;;
33150;SDS011;19508;42.578;23.416;2023-02-28T04:15:54;0.40;;;0.40;;
33150;SDS011;19508;42.578;23.416;2023-02-28T04:18:20;0.88;;;0.88;;
33150;SDS011;19508;42.578;23.416;2023-02-28T04:20:45;0.40;;;0.40;;
33150;SDS011;19508;42.578;23.416;2023-02-28T04:23:11;0.50;;;0.50;;
33150;SDS011;19508;42.578;23.416;2023-02-28T04:25:36;0.40;;;0.40;;
33150;SDS011;19508;42.578;23.416;2023-02-28T04:28:01;0.50;;;0.50;;
33150;SDS011;19508;42.578;23.416;2023-02-28T04:30:27;0.50;;;0.50;;
33150;SDS011;19508;42.578;23.416;2023-02-28T04:32:54;0.47;;;0.47;;
33150;SDS011;19508;42.578;23.416;2023-02-28T04:35:20;1.02;;;0.98;;
33150;SDS011;19508;42.578;23.416;2023-02-28T04:37:45;0.60;;;0.60;;
33150;SDS011;19508;42.578;23.416;2023-02-28T04:40:10;0.60;;;0.60;;
33150;SDS011;19508;42.578;23.416;2023-02-28T04:42:36;0.43;;;0.43;;
33150;SDS011;19508;42.578;23.416;2023-02-28T04:45:02;0.40;;;0.40;;
33150;SDS011;19508;42.578;23.416;2023-02-28T04:47:28;0.50;;;0.50;;
33150;SDS011;19508;42.578;23.416;2023-02-28T04:49:53;0.40;;;0.40;;
33150;SDS011;19508;42.578;23.416;2023-02-28T04:52:19;0.40;;;0.40;;
33150;SDS011;19508;42.578;23.416;2023-02-28T04:54:44;0.40;;;0.40;;
33150;SDS011;19508;42.578;23.416;2023-02-28T04:57:10;0.85;;;0.85;;
33150;SDS011;19508;42.578;23.416;2023-02-28T04:59:35;0.30;;;0.30;;
33150;SDS011;19508;42.578;23.416;2023-02-28T05:02:01;0.40;;;0.40;;
33150;SDS011;19508;42.578;23.416;2023-02-28T05:04:31;0.40;;;0.40;;
33150;SDS011;19508;42.578;23.416;2023-02-28T05:06:59;0.30;;;0.30;;
33150;SDS011;19508;42.578;23.416;2023-02-28T05:09:25;0.35;;;0.35;;
33150;SDS011;19508;42.578;23.416;2023-02-28T05:11:50;0.60;;;0.60;;
33150;SDS011;19508;42.578;23.416;2023-02-28T05:14:18;0.40;;;0.40;;
33150;SDS011;19508;42.578;23.416;2023-02-28T05:16:43;0.43;;;0.43;;
33150;SDS011;19508;42.578;23.416;2023-02-28T05:19:09;0.40;;;0.40;;
33150;SDS011;19508;42.578;23.416;2023-02-28T05:21:38;0.40;;;0.40;;
33150;SDS011;19508;42.578;23.416;2023-02-28T05:24:13;0.40;;;0.40;;
33150;SDS011;19508;42.578;23.416;2023-02-28T05:26:39;1.65;;;1.55;;
33150;SDS011;19508;42.578;23.416;2023-02-28T05:29:06;0.47;;;0.47;;
33150;SDS011;19508;42.578;23.416;2023-02-28T05:31:32;0.40;;;0.40;;
33150;SDS011;19508;42.578;23.416;2023-02-28T05:33:58;0.40;;;0.40;;
33150;SDS011;19508;42.578;23.416;2023-02-28T05:36:24;1.02;;;0.77;;
33150;SDS011;19508;42.578;23.416;2023-02-28T05:38:50;0.35;;;0.35;;
33150;SDS011;19508;42.578;23.416;2023-02-28T05:41:16;0.40;;;0.40;;
33150;SDS011;19508;42.578;23.416;2023-02-28T05:43:42;0.40;;;0.40;;
33150;SDS011;19508;42.578;23.416;2023-02-28T05:46:10;0.50;;;0.50;;
33150;SDS011;19508;42.578;23.416;2023-02-28T05:48:37;0.40;;;0.40;;
33150;SDS011;19508;42.578;23.416;2023-02-28T05:51:03;0.30;;;0.30;;
33150;SDS011;19508;42.578;23.416;2023-02-28T05:53:30;0.40;;;0.40;;
33150;SDS011;19508;42.578;23.416;2023-02-28T05:55:56;0.57;;;0.57;;
33150;SDS011;19508;42.578;23.416;2023-02-28T05:58:22;0.60;;;0.60;;
33150;SDS011;19508;42.578;23.416;2023-02-28T06:00:48;0.40;;;0.40;;
33150;SDS011;19508;42.578;23.416;2023-02-28T06:03:14;0.50;;;0.50;;
33150;SDS011;19508;42.578;23.416;2023-02-28T06:05:39;0.30;;;0.30;;
33150;SDS011;19508;42.578;23.416;2023-02-28T06:08:05;0.40;;;0.40;;
33150;SDS011;19508;42.578;23.416;2023-02-28T06:10:34;0.40;;;0.40;;
33150;SDS011;19508;42.578;23.416;2023-02-28T06:13:00;20.83;;;5.15;;
33150;SDS011;19508;42.578;23.416;2023-02-28T06:15:27;0.40;;;0.40;;
33150;SDS011;19508;42.578;23.416;2023-02-28T06:17:53;0.40;;;0.40;;
33150;SDS011;19508;42.578;23.416;2023-02-28T06:20:21;0.65;;;0.65;;
33150;SDS011;19508;42.578;23.416;2023-02-28T06:22:48;0.30;;;0.30;;
33150;SDS011;19508;42.578;23.416;2023-02-28T06:25:16;0.30;;;0.30;;
33150;SDS011;19508;42.578;23.416;2023-02-28T06:27:42;0.30;;;0.30;;
33150;SDS011;19508;42.578;23.416;2023-02-28T06:30:09;0.30;;;0.30;;
33150;SDS011;19508;42.578;23.416;2023-02-28T06:32:35;63.38;;;11.52;;
33150;SDS011;19508;42.578;23.416;2023-02-28T06:35:01;0.88;;;0.82;;
33150;SDS011;19508;42.578;23.416;2023-02-28T06:37:27;0.40;;;0.40;;
33150;SDS011;19508;42.578;23.416;2023-02-28T06:39:53;0.22;;;0.22;;
33150;SDS011;19508;42.578;23.416;2023-02-28T06:42:21;0.30;;;0.30;;
33150;SDS011;19508;42.578;23.416;2023-02-28T06:44:50;2.15;;;2.05;;
33150;SDS011;19508;42.578;23.416;2023-02-28T06:47:16;0.30;;;0.30;;
33150;SDS011;19508;42.578;23.416;2023-02-28T06:49:41;1.20;;;1.10;;
33150;SDS011;19508;42.578;23.416;2023-02-28T06:52:06;0.30;;;0.30;;
33150;SDS011;19508;42.578;23.416;2023-02-28T06:54:32;0.25;;;0.25;;
33150;SDS011;19508;42.578;23.416;2023-02-28T06:56:57;0.30;;;0.30;;
33150;SDS011;19508;42.578;23.416;2023-02-28T06:59:23;0.30;;;0.30;;
33150;SDS011;19508;42.578;23.416;2023-02-28T07:01:49;0.30;;;0.30;;
33150;SDS011;19508;42.578;23.416;2023-02-28T07:04:16;0.40;;;0.40;;
33150;SDS011;19508;42.578;23.416;2023-02-28T07:06:42;0.88;;;0.88;;
33150;SDS011;19508;42.578;23.416;2023-02-28T07:09:07;0.30;;;0.30;;
33150;SDS011;19508;42.578;23.416;2023-02-28T07:11:33;0.55;;;0.55;;
33150;SDS011;19508;42.578;23.416;2023-02-28T07:13:58;0.30;;;0.30;;
33150;SDS011;19508;42.578;23.416;2023-02-28T07:16:24;0.77;;;0.77;;
33150;SDS011;19508;42.578;23.416;2023-02-28T07:18:52;16.70;;;5.30;;
33150;SDS011;19508;42.578;23.416;2023-02-28T07:21:18;0.60;;;0.60;;
33150;SDS011;19508;42.578;23.416;2023-02-28T07:23:44;0.30;;;0.30;;
33150;SDS011;19508;42.578;23.416;2023-02-28T07:26:14;3.90;;;1.13;;
33150;SDS011;19508;42.578;23.416;2023-02-28T07:28:42;0.40;;;0.40;;
33150;SDS011;19508;42.578;23.416;2023-02-28T07:31:09;0.30;;;0.30;;
33150;SDS011;19508;42.578;23.416;2023-02-28T07:33:35;0.30;;;0.30;;
33150;SDS011;19508;42.578;23.416;2023-02-28T07:36:02;4.15;;;2.40;;
33150;SDS011;19508;42.578;23.416;2023-02-28T07:38:39;0.20;;;0.20;;
33150;SDS011;19508;42.578;23.416;2023-02-28T07:41:04;0.20;;;0.20;;
33150;SDS011;19508;42.578;23.416;2023-02-28T07:43:30;0.30;;;0.30;;
33150;SDS011;19508;42.578;23.416;2023-02-28T07:46:07;0.30;;;0.30;;
33150;SDS011;19508;42.578;23.416;2023-02-28T07:48:34;5.88;;;2.05;;
33150;SDS011;19508;42.578;23.416;2023-02-28T07:51:00;1.45;;;1.35;;
33150;SDS011;19508;42.578;23.416;2023-02-28T07:53:26;0.40;;;0.40;;
33150;SDS011;19508;42.578;23.416;2023-02-28T07:55:56;0.50;;;0.50;;
33150;SDS011;19508;42.578;23.416;2023-02-28T07:58:26;4.28;;;1.65;;
33150;SDS011;19508;42.578;23.416;2023-02-28T08:00:53;0.30;;;0.30;;
33150;SDS011;19508;42.578;23.416;2023-02-28T08:03:19;0.28;;;0.28;;
33150;SDS011;19508;42.578;23.416;2023-02-28T08:05:46;0.20;;;0.20;;
33150;SDS011;19508;42.578;23.416;2023-02-28T08:08:12;0.32;;;0.32;;
33150;SDS011;19508;42.578;23.416;2023-02-28T08:10:44;0.63;;;0.63;;
33150;SDS011;19508;42.578;23.416;2023-02-28T08:13:11;0.80;;;0.63;;
33150;SDS011;19508;42.578;23.416;2023-02-28T08:15:36;0.30;;;0.30;;
33150;SDS011;19508;42.578;23.416;2023-02-28T08:18:02;0.30;;;0.30;;
33150;SDS011;19508;42.578;23.416;2023-02-28T08:20:27;0.30;;;0.30;;
33150;SDS011;19508;42.578;23.416;2023-02-28T08:22:53;0.28;;;0.28;;
33150;SDS011;19508;42.578;23.416;2023-02-28T08:25:18;0.30;;;0.30;;
33150;SDS011;19508;42.578;23.416;2023-02-28T08:27:44;11.50;;;3.70;;
33150;SDS011;19508;42.578;23.416;2023-02-28T08:30:10;0.20;;;0.20;;
33150;SDS011;19508;42.578;23.416;2023-02-28T08:32:37;0.30;;;0.30;;
33150;SDS011;19508;42.578;23.416;2023-02-28T08:35:03;0.88;;;0.88;;
33150;SDS011;19508;42.578;23.416;2023-02-28T08:37:29;3.53;;;3.22;;
33150;SDS011;19508;42.578;23.416;2023-02-28T08:39:54;2.22;;;2.05;;
33150;SDS011;19508;42.578;23.416;2023-02-28T08:42:20;0.65;;;0.57;;
33150;SDS011;19508;42.578;23.416;2023-02-28T08:44:45;0.60;;;0.60;;
33150;SDS011;19508;42.578;23.416;2023-02-28T08:47:11;0.40;;;0.40;;
33150;SDS011;19508;42.578;23.416;2023-02-28T08:49:36;0.20;;;0.20;;
33150;SDS011;19508;42.578;23.416;2023-02-28T08:52:02;0.32;;;0.32;;
33150;SDS011;19508;42.578;23.416;2023-02-28T08:54:28;0.30;;;0.30;;
33150;SDS011;19508;42.578;23.416;2023-02-28T08:56:56;0.20;;;0.20;;
33150;SDS011;19508;42.578;23.416;2023-02-28T08:59:22;0.30;;;0.30;;
33150;SDS011;19508;42.578;23.416;2023-02-28T09:01:47;0.20;;;0.20;;
33150;SDS011;19508;42.578;23.416;2023-02-28T09:04:13;0.88;;;0.88;;
33150;SDS011;19508;42.578;23.416;2023-02-28T09:06:38;0.50;;;0.50;;
33150;SDS011;19508;42.578;23.416;2023-02-28T09:09:04;1.60;;;1.38;;
33150;SDS011;19508;42.578;23.416;2023-02-28T09:11:31;0.30;;;0.30;;
33150;SDS011;19508;42.578;23.416;2023-02-28T09:13:57;5.15;;;2.60;;
33150;SDS011;19508;42.578;23.416;2023-02-28T09:16:25;0.30;;;0.30;;
33150;SDS011;19508;42.578;23.416;2023-02-28T09:18:50;0.20;;;0.20;;
33150;SDS011;19508;42.578;23.416;2023-02-28T09:21:16;0.30;;;0.30;;
33150;SDS011;19508;42.578;23.416;2023-02-28T09:23:44;0.30;;;0.30;;
33150;SDS011;19508;42.578;23.416;2023-02-28T09:26:15;0.20;;;0.20;;
33150;SDS011;19508;42.578;23.416;2023-02-28T09:28:42;0.40;;;0.40;;
33150;SDS011;19508;42.578;23.416;2023-02-28T09:31:12;2.20;;;1.00;;
33150;SDS011;19508;42.578;23.416;2023-02-28T09:33:39;0.20;;;0.20;;
33150;SDS011;19508;42.578;23.416;2023-02-28T09:36:05;0.20;;;0.20;;
33150;SDS011;19508;42.578;23.416;2023-02-28T09:38:31;0.20;;;0.20;;
33150;SDS011;19508;42.578;23.416;2023-02-28T09:40:57;0.28;;;0.28;;
33150;SDS011;19508;42.578;23.416;2023-02-28T09:43:26;0.20;;;0.20;;
33150;SDS011;19508;42.578;23.416;2023-02-28T09:48:44;1.85;;;1.10;;
33150;SDS011;19508;42.578;23.416;2023-02-28T09:53:57;0.20;;;0.20;;
33150;SDS011;19508;42.578;23.416;2023-02-28T09:56:36;0.20;;;0.20;;
33150;SDS011;19508;42.578;23.416;2023-02-28T09:59:06;1.25;;;1.15;;
33150;SDS011;19508;42.578;23.416;2023-02-28T10:06:50;0.35;;;0.35;;
33150;SDS011;19508;42.578;23.416;2023-02-28T10:09:27;0.35;;;0.35;;
33150;SDS011;19508;42.578;23.416;2023-02-28T10:12:02;0.20;;;0.20;;
33150;SDS011;19508;42.578;23.416;2023-02-28T10:14:30;0.20;;;0.20;;
33150;SDS011;19508;42.578;23.416;2023-02-28T10:17:04;0.20;;;0.20;;
33150;SDS011;19508;42.578;23.416;2023-02-28T10:19:46;0.20;;;0.20;;
33150;SDS011;19508;42.578;23.416;2023-02-28T10:22:17;0.52;;;0.52;;
33150;SDS011;19508;42.578;23.416;2023-02-28T10:24:50;0.20;;;0.20;;
33150;SDS011;19508;42.578;23.416;2023-02-28T10:29:44;2.53;;;2.35;;
33150;SDS011;19508;42.578;23.416;2023-02-28T10:32:18;0.40;;;0.40;;
33150;SDS011;19508;42.578;23.416;2023-02-28T10:37:48;0.28;;;0.28;;
33150;SDS011;19508;42.578;23.416;2023-02-28T10:45:56;1.00;;;1.00;;
33150;SDS011;19508;42.578;23.416;2023-02-28T10:50:56;0.20;;;0.20;;
33150;SDS011;19508;42.578;23.416;2023-02-28T10:58:46;2.20;;;1.17;;
33150;SDS011;19508;42.578;23.416;2023-02-28T11:01:14;0.20;;;0.20;;
33150;SDS011;19508;42.578;23.416;2023-02-28T11:03:54;0.40;;;0.40;;
33150;SDS011;19508;42.578;23.416;2023-02-28T11:06:23;0.30;;;0.30;;
33150;SDS011;19508;42.578;23.416;2023-02-28T11:08:52;9.23;;;3.17;;
33150;SDS011;19508;42.578;23.416;2023-02-28T11:11:20;0.20;;;0.20;;
33150;SDS011;19508;42.578;23.416;2023-02-28T11:13:51;0.73;;;0.70;;
33150;SDS011;19508;42.578;23.416;2023-02-28T11:16:19;0.50;;;0.50;;
33150;SDS011;19508;42.578;23.416;2023-02-28T11:21:23;0.30;;;0.30;;
33150;SDS011;19508;42.578;23.416;2023-02-28T11:23:56;0.43;;;0.43;;
33150;SDS011;19508;42.578;23.416;2023-02-28T11:26:36;0.38;;;0.38;;
33150;SDS011;19508;42.578;23.416;2023-02-28T11:32:00;0.90;;;0.90;;
33150;SDS011;19508;42.578;23.416;2023-02-28T11:34:46;0.22;;;0.22;;
33150;SDS011;19508;42.578;23.416;2023-02-28T11:37:24;0.20;;;0.20;;
33150;SDS011;19508;42.578;23.416;2023-02-28T11:39:52;0.10;;;0.10;;
33150;SDS011;19508;42.578;23.416;2023-02-28T12:00:49;0.45;;;0.45;;
33150;SDS011;19508;42.578;23.416;2023-02-28T12:03:44;0.98;;;0.93;;
33150;SDS011;19508;42.578;23.416;2023-02-28T12:06:20;0.20;;;0.20;;
33150;SDS011;19508;42.578;23.416;2023-02-28T12:08:58;0.25;;;0.25;;
33150;SDS011;19508;42.578;23.416;2023-02-28T12:22:11;0.68;;;0.68;;
33150;SDS011;19508;42.578;23.416;2023-02-28T12:25:00;0.20;;;0.20;;
33150;SDS011;19508;42.578;23.416;2023-02-28T12:27:48;4.82;;;2.10;;
33150;SDS011;19508;42.578;23.416;2023-02-28T12:30:22;0.82;;;0.82;;
33150;SDS011;19508;42.578;23.416;2023-02-28T12:32:50;0.68;;;0.68;;
33150;SDS011;19508;42.578;23.416;2023-02-28T12:35:28;1.55;;;1.45;;
33150;SDS011;19508;42.578;23.416;2023-02-28T12:38:09;15.27;;;3.60;;
33150;SDS011;19508;42.578;23.416;2023-02-28T12:40:45;0.22;;;0.22;;
33150;SDS011;19508;42.578;23.416;2023-02-28T12:45:50;3.92;;;3.25;;
33150;SDS011;19508;42.578;23.416;2023-02-28T12:51:03;0.20;;;0.20;;
33150;SDS011;19508;42.578;23.416;2023-02-28T12:58:58;0.20;;;0.20;;
33150;SDS011;19508;42.578;23.416;2023-02-28T13:07:55;0.30;;;0.30;;
33150;SDS011;19508;42.578;23.416;2023-02-28T13:10:49;1.15;;;1.02;;
33150;SDS011;19508;42.578;23.416;2023-02-28T13:13:20;0.20;;;0.20;;
33150;SDS011;19508;42.578;23.416;2023-02-28T13:16:09;0.47;;;0.47;;
33150;SDS011;19508;42.578;23.416;2023-02-28T13:18:36;2.83;;;2.30;;
33150;SDS011;19508;42.578;23.416;2023-02-28T13:21:07;0.30;;;0.30;;
33150;SDS011;19508;42.578;23.416;2023-02-28T13:23:55;0.28;;;0.28;;
33150;SDS011;19508;42.578;23.416;2023-02-28T13:29:00;0.30;;;0.30;;
33150;SDS011;19508;42.578;23.416;2023-02-28T13:34:30;0.20;;;0.20;;
33150;SDS011;19508;42.578;23.416;2023-02-28T13:42:48;1.77;;;1.67;;
33150;SDS011;19508;42.578;23.416;2023-02-28T13:48:02;0.20;;;0.20;;
33150;SDS011;19508;42.578;23.416;2023-02-28T13:50:35;0.30;;;0.30;;
33150;SDS011;19508;42.578;23.416;2023-02-28T13:58:48;0.22;;;0.22;;
33150;SDS011;19508;42.578;23.416;2023-02-28T14:06:58;0.47;;;0.45;;
33150;SDS011;19508;42.578;23.416;2023-02-28T14:09:25;0.30;;;0.30;;
33150;SDS011;19508;42.578;23.416;2023-02-28T14:11:54;0.30;;;0.30;;
33150;SDS011;19508;42.578;23.416;2023-02-28T14:17:07;11.88;;;3.03;;
33150;SDS011;19508;42.578;23.416;2023-02-28T14:19:38;4.53;;;2.47;;
33150;SDS011;19508;42.578;23.416;2023-02-28T14:27:35;8.48;;;3.45;;
33150;SDS011;19508;42.578;23.416;2023-02-28T14:33:17;0.30;;;0.30;;
33150;SDS011;19508;42.578;23.416;2023-02-28T14:36:03;0.30;;;0.30;;
33150;SDS011;19508;42.578;23.416;2023-02-28T14:38:47;0.40;;;0.40;;
33150;SDS011;19508;42.578;23.416;2023-02-28T14:41:20;1.65;;;1.55;;
33150;SDS011;19508;42.578;23.416;2023-02-28T14:43:56;0.95;;;0.95;;
33150;SDS011;19508;42.578;23.416;2023-02-28T14:46:25;0.30;;;0.30;;
33150;SDS011;19508;42.578;23.416;2023-02-28T14:48:55;0.30;;;0.30;;
33150;SDS011;19508;42.578;23.416;2023-02-28T14:51:21;0.55;;;0.55;;
33150;SDS011;19508;42.578;23.416;2023-02-28T14:53:53;0.30;;;0.30;;
33150;SDS011;19508;42.578;23.416;2023-02-28T14:56:24;0.88;;;0.88;;
33150;SDS011;19508;42.578;23.416;2023-02-28T14:58:55;0.30;;;0.30;;
33150;SDS011;19508;42.578;23.416;2023-02-28T15:01:21;0.28;;;0.28;;
33150;SDS011;19508;42.578;23.416;2023-02-28T15:03:48;0.30;;;0.30;;
33150;SDS011;19508;42.578;23.416;2023-02-28T15:06:22;0.40;;;0.40;;
33150;SDS011;19508;42.578;23.416;2023-02-28T15:08:56;0.30;;;0.30;;
33150;SDS011;19508;42.578;23.416;2023-02-28T15:11:37;0.20;;;0.20;;
33150;SDS011;19508;42.578;23.416;2023-02-28T15:14:04;46.38;;;2.70;;
33150;SDS011;19508;42.578;23.416;2023-02-28T15:16:39;2.45;;;2.28;;
33150;SDS011;19508;42.578;23.416;2023-02-28T15:19:17;1.02;;;1.02;;
33150;SDS011;19508;42.578;23.416;2023-02-28T15:21:48;2.53;;;2.17;;
33150;SDS011;19508;42.578;23.416;2023-02-28T15:24:20;2.72;;;1.95;;
33150;SDS011;19508;42.578;23.416;2023-02-28T15:26:59;0.30;;;0.30;;
33150;SDS011;19508;42.578;23.416;2023-02-28T15:29:29;0.30;;;0.30;;
33150;SDS011;19508;42.578;23.416;2023-02-28T15:32:04;0.30;;;0.30;;
33150;SDS011;19508;42.578;23.416;2023-02-28T15:34:39;0.20;;;0.20;;
33150;SDS011;19508;42.578;23.416;2023-02-28T15:39:55;0.40;;;0.40;;
33150;SDS011;19508;42.578;23.416;2023-02-28T15:42:22;2.15;;;2.05;;
33150;SDS011;19508;42.578;23.416;2023-02-28T15:44:52;0.30;;;0.30;;
33150;SDS011;19508;42.578;23.416;2023-02-28T15:47:18;0.30;;;0.30;;
33150;SDS011;19508;42.578;23.416;2023-02-28T15:49:51;0.30;;;0.30;;
33150;SDS011;19508;42.578;23.416;2023-02-28T15:52:20;0.30;;;0.30;;
33150;SDS011;19508;42.578;23.416;2023-02-28T15:54:49;0.45;;;0.45;;
33150;SDS011;19508;42.578;23.416;2023-02-28T15:57:33;0.20;;;0.20;;
33150;SDS011;19508;42.578;23.416;2023-02-28T16:00:00;0.30;;;0.30;;
33150;SDS011;19508;42.578;23.416;2023-02-28T16:02:30;0.45;;;0.45;;
33150;SDS011;19508;42.578;23.416;2023-02-28T16:05:12;0.70;;;0.70;;
33150;SDS011;19508;42.578;23.416;2023-02-28T16:07:45;0.30;;;0.30;;
33150;SDS011;19508;42.578;23.416;2023-02-28T16:10:13;1.27;;;1.10;;
33150;SDS011;19508;42.578;23.416;2023-02-28T16:12:39;0.73;;;0.73;;
33150;SDS011;19508;42.578;23.416;2023-02-28T16:15:15;0.30;;;0.30;;
33150;SDS011;19508;42.578;23.416;2023-02-28T16:17:44;0.65;;;0.65;;
33150;SDS011;19508;42.578;23.416;2023-02-28T16:20:32;0.70;;;0.70;;
33150;SDS011;19508;42.578;23.416;2023-02-28T16:22:57;0.32;;;0.32;;
33150;SDS011;19508;42.578;23.416;2023-02-28T16:25:36;0.30;;;0.30;;
33150;SDS011;19508;42.578;23.416;2023-02-28T16:28:05;0.40;;;0.40;;
33150;SDS011;19508;42.578;23.416;2023-02-28T16:30:42;0.43;;;0.43;;
33150;SDS011;19508;42.578;23.416;2023-02-28T16:33:08;0.30;;;0.30;;
33150;SDS011;19508;42.578;23.416;2023-02-28T16:35:34;0.30;;;0.30;;
33150;SDS011;19508;42.578;23.416;2023-02-28T16:37:59;0.40;;;0.40;;
33150;SDS011;19508;42.578;23.416;2023-02-28T16:40:25;0.30;;;0.30;;
33150;SDS011;19508;42.578;23.416;2023-02-28T16:42:54;2.05;;;0.77;;
33150;SDS011;19508;42.578;23.416;2023-02-28T16:45:25;0.30;;;0.30;;
33150;SDS011;19508;42.578;23.416;2023-02-28T16:47:53;0.63;;;0.63;;
33150;SDS011;19508;42.578;23.416;2023-02-28T16:50:23;0.30;;;0.30;;
33150;SDS011;19508;42.578;23.416;2023-02-28T16:52:53;14.82;;;7.03;;
33150;SDS011;19508;42.578;23.416;2023-02-28T16:55:20;9.45;;;5.82;;
33150;SDS011;19508;42.578;23.416;2023-02-28T16:57:49;12.85;;;7.35;;
33150;SDS011;19508;42.578;23.416;2023-02-28T17:00:17;14.95;;;7.35;;
33150;SDS011;19508;42.578;23.416;2023-02-28T17:02:43;12.07;;;7.53;;
33150;SDS011;19508;42.578;23.416;2023-02-28T17:05:10;13.32;;;7.80;;
33150;SDS011;19508;42.578;23.416;2023-02-28T17:07:37;16.23;;;8.68;;
33150;SDS011;19508;42.578;23.416;2023-02-28T17:10:09;70.00;;;27.40;;
33150;SDS011;19508;42.578;23.416;2023-02-28T17:12:40;34.42;;;14.18;;